Time;durP1;ratioP1;P1;durP2;ratioP2;P2;SDS_P1;SDS_P2;PMS_P1;PMS_P2;Temp;Humidity;BMP_temperature;BMP_pressure;BME280_temperature;BME280_humidity;BME280_pressure;Samples;Min_cycle;Max_cycle;Signal;HPM_P1;HPM_P2
2022/10/26 00:01:29;;;;;;;7.72;4.63;;;10.10;99.90;;;;;;4673421;28;10000381;-73
2022/10/26 00:03:55;;;;;;;5.10;4.00;;;10.10;99.90;;;;;;5025664;28;20080;-74
2022/10/26 00:06:24;;;;;;;4.75;3.40;;;10.10;99.90;;;;;;5035159;28;20043;-73
2022/10/26 00:08:50;;;;;;;5.32;3.70;;;10.00;99.90;;;;;;5026229;28;20029;-74
2022/10/26 00:11:17;;;;;;;5.20;3.40;;;10.00;99.90;;;;;;5024640;28;20060;-74
2022/10/26 00:13:44;;;;;;;4.25;3.28;;;10.00;99.90;;;;;;5029494;28;20037;-74
2022/10/26 00:16:15;;;;;;;6.05;3.80;;;10.00;99.90;;;;;;5024814;28;20079;-74
2022/10/26 00:18:41;;;;;;;5.30;3.65;;;10.00;99.90;;;;;;5029894;28;20033;-74
2022/10/26 00:21:08;;;;;;;5.25;3.70;;;10.00;99.90;;;;;;5027029;28;20025;-74
2022/10/26 00:23:34;;;;;;;6.63;4.00;;;10.00;99.90;;;;;;5026215;28;20274;-73
2022/10/26 00:26:00;;;;;;;10.77;4.00;;;10.00;99.90;;;;;;5028442;28;20048;-74
2022/10/26 00:28:26;;;;;;;9.95;4.75;;;10.10;99.90;;;;;;5027616;28;20394;-74
2022/10/26 00:30:52;;;;;;;8.45;5.03;;;10.10;99.90;;;;;;5028460;28;20044;-74
2022/10/26 00:33:18;;;;;;;8.32;5.22;;;10.20;99.90;;;;;;5026735;28;20116;-74
2022/10/26 00:35:47;;;;;;;16.33;5.85;;;10.20;99.90;;;;;;5034728;28;20541;-74
2022/10/26 00:38:13;;;;;;;11.70;5.88;;;10.30;99.90;;;;;;5026763;28;20062;-74
2022/10/26 00:40:39;;;;;;;10.07;6.00;;;10.30;99.90;;;;;;5026824;28;20025;-74
2022/10/26 00:43:29;;;;;;;8.93;5.10;;;10.30;99.90;;;;;;5028290;28;20025;-74
2022/10/26 00:45:57;;;;;;;10.80;5.35;;;10.20;99.90;;;;;;5024920;28;20041;-74
2022/10/26 00:48:24;;;;;;;9.80;5.00;;;10.20;99.90;;;;;;5024871;28;20055;-73
2022/10/26 00:50:52;;;;;;;10.43;5.43;;;10.20;99.90;;;;;;5028264;28;20476;-73
2022/10/26 00:53:19;;;;;;;11.75;5.40;;;10.20;99.90;;;;;;5024550;28;20032;-73
2022/10/26 00:55:49;;;;;;;10.25;5.72;;;10.20;99.90;;;;;;5027870;28;20599;-73
2022/10/26 00:58:16;;;;;;;11.20;5.55;;;10.20;99.90;;;;;;5026671;28;20039;-73
2022/10/26 01:00:42;;;;;;;9.93;6.07;;;10.20;99.90;;;;;;5026164;28;20033;-73
2022/10/26 01:03:09;;;;;;;15.50;6.78;;;10.20;99.90;;;;;;5018548;28;20584;-73
2022/10/26 01:05:39;;;;;;;10.48;6.75;;;10.20;99.90;;;;;;5028454;28;20039;-73
2022/10/26 01:08:06;;;;;;;13.43;6.88;;;10.20;99.90;;;;;;5027022;28;20029;-73
2022/10/26 01:10:33;;;;;;;11.50;7.15;;;10.20;99.90;;;;;;5031388;28;20141;-74
2022/10/26 01:12:59;;;;;;;12.52;6.90;;;10.20;99.90;;;;;;5024107;28;20096;-74
2022/10/26 01:15:38;;;;;;;13.35;6.53;;;10.20;99.90;;;;;;5023471;28;20476;-73
2022/10/26 01:18:20;;;;;;;8.98;6.43;;;10.20;99.90;;;;;;5025173;28;20109;-73
2022/10/26 01:21:22;;;;;;;10.63;6.22;;;10.20;99.90;;;;;;5025135;28;20033;-74
2022/10/26 01:24:13;;;;;;;9.07;6.18;;;10.20;99.90;;;;;;5021217;28;20090;-74
2022/10/26 01:26:57;;;;;;;8.18;5.50;;;10.10;99.90;;;;;;5034202;28;20504;-74
2022/10/26 01:29:35;;;;;;;10.32;6.20;;;10.10;99.90;;;;;;5031479;28;20033;-74
2022/10/26 01:32:13;;;;;;;8.15;5.57;;;10.10;99.90;;;;;;5027595;28;20056;-73
2022/10/26 01:35:07;;;;;;;8.30;5.57;;;10.10;99.90;;;;;;5031856;28;20033;-74
2022/10/26 01:37:38;;;;;;;12.02;6.07;;;10.00;99.90;;;;;;5019423;28;20508;-74
2022/10/26 01:40:22;;;;;;;7.35;4.93;;;10.00;99.90;;;;;;5030740;28;20040;-74
2022/10/26 01:42:52;;;;;;;9.73;5.32;;;9.90;99.90;;;;;;5033069;28;20099;-74
2022/10/26 01:45:18;;;;;;;8.45;5.68;;;9.90;99.90;;;;;;5034689;28;20560;-74
2022/10/26 01:47:46;;;;;;;6.75;5.18;;;9.80;99.90;;;;;;5022238;28;20657;-74
2022/10/26 01:50:11;;;;;;;7.15;5.00;;;9.90;99.90;;;;;;5026601;28;20033;-73
2022/10/26 01:52:37;;;;;;;5.65;4.50;;;9.80;99.90;;;;;;5025104;28;20040;-74
2022/10/26 01:55:06;;;;;;;6.30;4.32;;;9.80;99.90;;;;;;5023819;28;20033;-74
2022/10/26 01:57:35;;;;;;;8.60;4.45;;;9.80;99.90;;;;;;5028941;28;20041;-74
2022/10/26 02:00:08;;;;;;;6.07;4.05;;;9.80;99.90;;;;;;5026193;28;20057;-74
2022/10/26 02:03:03;;;;;;;4.40;3.78;;;9.80;99.90;;;;;;5025427;28;20485;-73
2022/10/26 02:05:55;;;;;;;6.88;3.60;;;9.70;99.90;;;;;;5024783;28;20045;-73
2022/10/26 02:08:48;;;;;;;5.78;3.67;;;9.80;99.90;;;;;;5027114;28;20388;-73
2022/10/26 02:11:14;;;;;;;;;;;9.70;99.90;;;;;;5027851;28;20031;-73
2022/10/26 02:13:39;;;;;;;5.05;3.38;;;9.80;99.90;;;;;;5023159;28;19908;-73
2022/10/26 02:16:29;;;;;;;5.88;3.97;;;9.70;99.90;;;;;;5023736;28;20032;-73
2022/10/26 02:19:04;;;;;;;11.95;4.60;;;9.70;99.90;;;;;;5028355;28;20026;-73
2022/10/26 02:21:40;;;;;;;8.05;4.45;;;9.70;99.90;;;;;;5030626;28;20366;-73
2022/10/26 02:24:09;;;;;;;10.13;5.38;;;9.70;99.90;;;;;;5026245;28;20032;-73
2022/10/26 02:26:38;;;;;;;9.73;5.18;;;9.70;99.90;;;;;;5027922;28;20486;-73
2022/10/26 02:29:08;;;;;;;8.23;5.82;;;9.70;99.90;;;;;;5024806;28;20511;-73
2022/10/26 02:31:36;;;;;;;13.45;6.55;;;9.70;99.90;;;;;;5023915;28;20079;-73
2022/10/26 02:34:05;;;;;;;14.60;6.53;;;9.80;99.90;;;;;;5027931;28;20033;-73
2022/10/26 02:36:35;;;;;;;10.57;6.22;;;9.80;99.90;;;;;;5027129;28;20186;-74
2022/10/26 02:39:05;;;;;;;15.10;5.88;;;9.80;99.90;;;;;;5029043;28;20068;-73
2022/10/26 02:41:32;;;;;;;10.32;5.40;;;9.90;99.90;;;;;;5025889;28;20030;-73
2022/10/26 02:44:22;;;;;;;11.43;5.93;;;9.90;99.90;;;;;;5025774;28;20029;-73
2022/10/26 02:46:49;;;;;;;15.77;6.50;;;9.90;99.90;;;;;;5027883;28;20026;-74
2022/10/26 02:49:15;;;;;;;10.10;5.80;;;9.90;99.90;;;;;;5025640;28;20029;-74
2022/10/26 02:51:49;;;;;;;11.25;6.40;;;9.90;99.90;;;;;;5021958;28;20508;-73
2022/10/26 02:54:14;;;;;;;;;;;9.90;99.90;;;;;;5022858;28;20049;-74
2022/10/26 02:56:44;;;;;;;8.82;5.38;;;9.90;99.90;;;;;;5030652;28;19909;-74
2022/10/26 02:59:12;;;;;;;9.07;5.43;;;9.90;99.90;;;;;;5034664;28;20025;-73
2022/10/26 03:01:39;;;;;;;9.18;5.63;;;9.90;99.90;;;;;;5036486;28;22205;-74
2022/10/26 03:04:04;;;;;;;9.63;6.25;;;9.90;99.90;;;;;;5031926;28;20033;-74
2022/10/26 03:06:30;;;;;;;9.88;6.57;;;9.90;99.90;;;;;;5027155;28;20036;-74
2022/10/26 03:08:56;;;;;;;9.27;6.72;;;9.80;99.90;;;;;;5031030;28;20057;-73
2022/10/26 03:11:21;;;;;;;9.02;7.03;;;9.80;99.90;;;;;;5029704;28;20022;-73
2022/10/26 03:13:47;;;;;;;10.65;7.25;;;9.80;99.90;;;;;;5020459;28;20059;-74
2022/10/26 03:16:13;;;;;;;14.13;6.90;;;9.80;99.90;;;;;;5029933;28;20646;-73
2022/10/26 03:18:38;;;;;;;10.73;7.30;;;9.80;99.90;;;;;;5017344;28;20025;-73
2022/10/26 03:21:04;;;;;;;10.82;6.35;;;9.70;99.90;;;;;;5029846;28;20060;-73
2022/10/26 03:23:30;;;;;;;6.45;5.65;;;9.70;99.90;;;;;;5027601;28;20021;-73
2022/10/26 03:25:57;;;;;;;9.38;6.93;;;9.60;99.90;;;;;;5028386;28;20536;-73
2022/10/26 03:28:22;;;;;;;11.98;7.10;;;9.60;99.90;;;;;;5029145;28;20072;-73
2022/10/26 03:30:48;;;;;;;7.47;6.10;;;9.60;99.90;;;;;;5025456;28;20128;-73
2022/10/26 03:33:13;;;;;;;10.90;6.90;;;9.60;99.90;;;;;;5026542;28;20049;-73
2022/10/26 03:35:39;;;;;;;10.77;5.85;;;9.60;99.90;;;;;;5025907;28;20526;-73
2022/10/26 03:38:05;;;;;;;8.82;5.70;;;9.60;99.90;;;;;;5027794;28;20021;-73
2022/10/26 03:40:30;;;;;;;9.15;5.80;;;9.70;99.90;;;;;;5026313;28;20452;-74
2022/10/26 03:42:56;;;;;;;7.07;5.25;;;9.60;99.90;;;;;;5025701;28;20032;-73
2022/10/26 03:45:22;;;;;;;8.23;5.18;;;9.60;99.90;;;;;;5029260;28;20029;-73
2022/10/26 03:47:48;;;;;;;9.20;5.70;;;9.70;99.90;;;;;;5028761;28;20025;-73
2022/10/26 03:50:16;;;;;;;8.63;5.70;;;9.70;99.90;;;;;;5022423;28;20029;-73
2022/10/26 03:52:42;;;;;;;7.88;5.60;;;9.70;99.90;;;;;;5023425;28;20080;-73
2022/10/26 03:55:08;;;;;;;7.80;5.50;;;9.70;99.90;;;;;;5019049;28;20509;-73
2022/10/26 03:57:38;;;;;;;11.05;6.22;;;9.70;99.90;;;;;;5022977;28;20026;-73
2022/10/26 04:00:04;;;;;;;10.63;6.10;;;9.80;99.90;;;;;;5022843;28;20021;-74
2022/10/26 04:02:30;;;;;;;9.23;6.20;;;9.80;99.90;;;;;;5017354;28;20053;-73
2022/10/26 04:04:56;;;;;;;8.40;6.00;;;9.80;99.90;;;;;;5030311;28;20061;-73
2022/10/26 04:07:21;;;;;;;10.02;6.07;;;9.70;99.90;;;;;;5026075;28;20246;-74
2022/10/26 04:09:47;;;;;;;7.05;5.45;;;9.70;99.90;;;;;;5024355;28;20028;-73
2022/10/26 04:12:12;;;;;;;7.05;5.10;;;9.80;99.90;;;;;;5029801;28;20036;-74
2022/10/26 04:14:38;;;;;;;8.00;5.80;;;9.80;99.90;;;;;;5024244;28;20111;-74
2022/10/26 04:17:03;;;;;;;6.93;5.07;;;9.80;99.90;;;;;;5021157;28;20048;-74
2022/10/26 04:19:29;;;;;;;8.50;5.10;;;9.80;99.90;;;;;;5028844;28;20060;-74
2022/10/26 04:21:55;;;;;;;6.75;5.18;;;9.80;99.90;;;;;;5020421;28;20051;-73
2022/10/26 04:24:20;;;;;;;7.30;4.93;;;9.80;99.90;;;;;;5030305;28;20036;-74
2022/10/26 04:26:46;;;;;;;7.43;4.60;;;9.80;99.90;;;;;;5021251;28;20051;-74
2022/10/26 04:29:12;;;;;;;6.65;4.80;;;9.80;99.90;;;;;;5025069;28;20045;-74
2022/10/26 04:31:38;;;;;;;5.80;4.70;;;9.80;99.90;;;;;;5024330;28;20102;-73
2022/10/26 04:34:04;;;;;;;7.22;4.88;;;9.80;99.90;;;;;;5022018;28;20486;-73
2022/10/26 04:36:29;;;;;;;6.55;5.07;;;9.80;99.90;;;;;;5022039;28;20029;-73
2022/10/26 04:38:55;;;;;;;8.80;5.15;;;9.90;99.90;;;;;;5024503;28;20104;-73
2022/10/26 04:41:21;;;;;;;6.95;5.32;;;9.90;99.90;;;;;;5020298;28;20029;-73
2022/10/26 04:43:46;;;;;;;6.88;5.47;;;9.90;99.90;;;;;;5019015;28;20033;-73
2022/10/26 04:46:13;;;;;;;6.93;5.35;;;9.90;99.90;;;;;;5026229;28;20129;-73
2022/10/26 04:48:39;;;;;;;9.45;5.72;;;10.00;99.90;;;;;;5024626;28;20039;-73
2022/10/26 04:51:04;;;;;;;8.73;6.15;;;9.90;99.90;;;;;;5029593;28;20419;-73
2022/10/26 04:53:30;;;;;;;8.25;6.18;;;9.90;99.90;;;;;;5019160;28;20029;-73
2022/10/26 04:55:57;;;;;;;9.57;6.10;;;10.00;99.90;;;;;;5026038;28;20025;-73
2022/10/26 04:58:23;;;;;;;8.38;6.00;;;10.00;99.90;;;;;;5021466;28;20037;-73
2022/10/26 05:00:48;;;;;;;8.13;5.70;;;10.00;99.90;;;;;;5022296;28;20240;-74
2022/10/26 05:03:14;;;;;;;6.82;5.63;;;10.00;99.90;;;;;;5019550;28;20029;-74
2022/10/26 05:05:40;;;;;;;7.78;5.40;;;10.00;99.90;;;;;;5018874;28;20115;-74
2022/10/26 05:08:05;;;;;;;7.75;5.75;;;9.90;99.90;;;;;;5024393;28;20017;-74
2022/10/26 05:10:31;;;;;;;9.73;6.03;;;10.00;99.90;;;;;;5031009;28;20087;-74
2022/10/26 05:12:58;;;;;;;11.95;6.30;;;9.90;99.90;;;;;;5021919;28;20120;-74
2022/10/26 05:15:25;;;;;;;11.48;6.80;;;10.00;99.90;;;;;;5015387;28;20036;-74
2022/10/26 05:18:04;;;;;;;10.35;7.90;;;10.00;99.90;;;;;;5019972;28;20576;-74
2022/10/26 05:20:32;;;;;;;10.20;7.28;;;10.00;99.90;;;;;;5027115;28;20685;-74
2022/10/26 05:23:00;;;;;;;9.90;7.30;;;10.00;99.90;;;;;;5021846;28;20040;-74
2022/10/26 05:25:26;;;;;;;10.32;7.80;;;10.00;99.90;;;;;;5022076;28;20033;-74
2022/10/26 05:28:00;;;;;;;12.63;7.32;;;9.90;99.90;;;;;;5027319;28;20035;-74
2022/10/26 05:30:26;;;;;;;;;;;9.90;99.90;;;;;;5026435;28;20045;-74
2022/10/26 05:32:56;;;;;;;8.98;6.30;;;10.00;99.90;;;;;;5022384;28;19924;-74
2022/10/26 05:35:22;;;;;;;9.32;5.70;;;10.00;99.90;;;;;;5026873;28;20815;-74
2022/10/26 05:37:48;;;;;;;8.02;6.20;;;9.90;99.90;;;;;;5026864;28;20028;-75
2022/10/26 05:40:15;;;;;;;9.52;6.88;;;10.00;99.90;;;;;;5021069;28;20453;-74
2022/10/26 05:42:41;;;;;;;9.18;6.97;;;9.90;99.90;;;;;;5022321;28;20037;-75
2022/10/26 05:45:07;;;;;;;11.88;8.05;;;9.90;99.90;;;;;;5028928;28;20233;-74
2022/10/26 05:47:40;;;;;;;10.15;7.35;;;9.90;99.90;;;;;;5023798;28;20684;-74
2022/10/26 05:50:06;;;;;;;8.15;6.50;;;9.90;99.90;;;;;;5028062;28;20563;-74
2022/10/26 05:52:43;;;;;;;10.75;6.68;;;9.90;99.90;;;;;;5021676;28;20048;-74
2022/10/26 05:55:10;;;;;;;8.77;5.95;;;9.90;99.90;;;;;;5017532;28;20341;-74
2022/10/26 05:57:36;;;;;;;6.53;5.38;;;9.90;99.90;;;;;;5020463;28;20036;-74
2022/10/26 06:00:06;;;;;;;7.28;5.53;;;9.90;99.90;;;;;;5018649;28;20037;-74
2022/10/26 06:02:46;;;;;;;9.20;5.13;;;10.00;99.90;;;;;;5016536;28;20457;-74
2022/10/26 06:05:21;;;;;;;5.70;4.75;;;9.90;99.90;;;;;;5024661;28;20493;-74
2022/10/26 06:07:47;;;;;;;7.65;4.78;;;10.00;99.90;;;;;;5021828;28;20032;-74
2022/10/26 06:10:13;;;;;;;8.93;5.20;;;9.90;99.90;;;;;;5024573;28;20029;-74
2022/10/26 06:12:38;;;;;;;7.38;4.82;;;9.90;99.90;;;;;;5021127;28;20118;-74
2022/10/26 06:15:05;;;;;;;10.23;5.35;;;9.90;99.90;;;;;;5022196;28;20037;-74
2022/10/26 06:17:30;;;;;;;5.82;4.82;;;10.00;99.90;;;;;;5021723;28;20040;-74
2022/10/26 06:20:28;;;;;;;9.93;5.47;;;10.00;99.90;;;;;;5026744;28;20018;-74
2022/10/26 06:23:09;;;;;;;12.23;5.85;;;10.00;99.90;;;;;;5023779;28;20028;-74
2022/10/26 06:25:47;;;;;;;8.90;5.30;;;10.10;99.90;;;;;;5022998;28;20033;-74
2022/10/26 06:28:21;;;;;;;6.03;4.43;;;10.10;99.90;;;;;;5022524;28;20109;-73
2022/10/26 06:30:47;;;;;;;8.73;5.22;;;10.10;99.90;;;;;;5029963;28;20049;-73
2022/10/26 06:33:14;;;;;;;9.82;5.32;;;10.00;99.90;;;;;;5028772;28;20078;-74
2022/10/26 06:35:39;;;;;;;8.13;5.18;;;10.10;99.90;;;;;;5030950;28;20021;-74
2022/10/26 06:38:19;;;;;;;7.95;5.05;;;10.10;99.90;;;;;;5041161;28;20041;-74
2022/10/26 06:40:48;;;;;;;9.75;4.88;;;10.10;99.90;;;;;;5029763;28;20033;-73
2022/10/26 06:43:29;;;;;;;8.57;4.72;;;10.20;99.90;;;;;;5022394;28;20029;-74
2022/10/26 06:46:30;;;;;;;6.70;4.25;;;10.20;99.90;;;;;;5022857;28;20029;-74
2022/10/26 06:49:02;;;;;;;7.65;5.20;;;10.20;99.90;;;;;;5032307;28;20124;-75
2022/10/26 06:51:29;;;;;;;7.43;4.63;;;10.30;99.90;;;;;;5032544;28;20025;-74
2022/10/26 06:54:07;;;;;;;8.70;4.65;;;10.30;99.90;;;;;;5029893;28;20030;-74
2022/10/26 06:56:33;;;;;;;9.20;5.60;;;10.30;99.90;;;;;;5036653;28;20591;-75
2022/10/26 06:59:07;;;;;;;10.23;4.97;;;10.30;99.90;;;;;;5026853;28;20018;-74
2022/10/26 07:01:32;;;;;;;8.05;5.43;;;10.40;99.90;;;;;;5026015;28;20033;-74
2022/10/26 07:03:58;;;;;;;9.80;6.43;;;10.40;99.90;;;;;;5031386;28;20120;-74
2022/10/26 07:06:24;;;;;;;7.63;5.72;;;10.40;99.90;;;;;;5033807;28;20499;-73
2022/10/26 07:08:50;;;;;;;17.85;8.18;;;10.40;99.90;;;;;;5033722;28;20083;-75
2022/10/26 07:11:15;;;;;;;16.45;10.63;;;10.50;99.90;;;;;;5034883;28;20037;-75
2022/10/26 07:13:41;;;;;;;17.63;11.82;;;10.50;99.90;;;;;;5035668;28;20014;-74
2022/10/26 07:16:07;;;;;;;13.20;8.65;;;10.60;99.90;;;;;;5029202;28;20401;-74
2022/10/26 07:18:32;;;;;;;11.07;8.10;;;10.60;99.90;;;;;;5030603;28;20033;-74
2022/10/26 07:20:58;;;;;;;9.75;7.25;;;10.60;99.90;;;;;;5030702;28;20039;-74
2022/10/26 07:23:24;;;;;;;10.43;6.95;;;10.60;99.90;;;;;;5035012;28;20485;-74
2022/10/26 07:25:49;;;;;;;8.38;6.47;;;10.70;99.90;;;;;;5043614;28;20040;-74
2022/10/26 07:28:15;;;;;;;13.68;7.65;;;10.70;99.90;;;;;;5039576;28;20405;-74
2022/10/26 07:30:41;;;;;;;11.70;7.32;;;10.80;99.90;;;;;;5028159;28;20052;-74
2022/10/26 07:33:12;;;;;;;16.85;8.05;;;10.80;99.90;;;;;;5040811;28;20201;-74
2022/10/26 07:35:38;;;;;;;11.00;7.40;;;10.90;99.90;;;;;;5034166;28;20532;-74
2022/10/26 07:38:05;;;;;;;10.52;7.05;;;10.90;99.90;;;;;;5025371;28;20553;-74
2022/10/26 07:40:31;;;;;;;13.05;7.70;;;10.90;99.90;;;;;;5026153;28;20079;-74
2022/10/26 07:42:58;;;;;;;9.10;6.55;;;10.90;99.90;;;;;;5031249;28;20236;-75
2022/10/26 07:45:25;;;;;;;12.75;7.53;;;11.10;99.90;;;;;;5023633;28;20044;-75
2022/10/26 07:47:50;;;;;;;12.40;7.55;;;11.10;99.90;;;;;;5031900;28;20044;-75
2022/10/26 07:50:16;;;;;;;13.32;7.75;;;11.20;99.90;;;;;;5030765;28;20033;-74
2022/10/26 07:52:42;;;;;;;14.73;7.47;;;11.20;99.90;;;;;;5034846;28;20025;-74
2022/10/26 07:55:09;;;;;;;14.98;8.13;;;11.30;99.90;;;;;;5036229;28;20037;-75
2022/10/26 07:57:35;;;;;;;12.70;7.03;;;11.40;99.90;;;;;;5031702;28;20041;-75
2022/10/26 08:00:00;;;;;;;13.05;8.20;;;11.50;99.90;;;;;;5033114;28;20498;-75
2022/10/26 08:02:26;;;;;;;13.60;8.20;;;11.60;99.90;;;;;;5030133;28;20509;-75
2022/10/26 08:04:52;;;;;;;16.95;9.55;;;11.70;99.90;;;;;;5033234;28;20052;-74
2022/10/26 08:07:18;;;;;;;17.08;10.10;;;11.80;99.90;;;;;;5022643;28;20351;-75
2022/10/26 08:09:43;;;;;;;13.85;9.68;;;11.80;99.90;;;;;;5035039;28;20535;-75
2022/10/26 08:12:09;;;;;;;14.20;9.95;;;11.80;99.90;;;;;;5031931;28;20029;-75
2022/10/26 08:14:35;;;;;;;16.60;9.95;;;11.80;99.90;;;;;;5027568;28;20068;-75
2022/10/26 08:17:00;;;;;;;14.60;8.43;;;11.70;99.90;;;;;;5029944;28;20087;-74
2022/10/26 08:19:26;;;;;;;9.60;5.80;;;11.80;99.90;;;;;;5029439;28;20022;-74
2022/10/26 08:21:51;;;;;;;9.80;5.60;;;11.70;99.90;;;;;;5028180;28;20029;-75
2022/10/26 08:24:17;;;;;;;9.43;5.40;;;11.70;99.90;;;;;;5025624;28;20481;-74
2022/10/26 08:26:43;;;;;;;8.88;5.45;;;11.70;99.90;;;;;;5024347;28;20099;-75
2022/10/26 08:29:08;;;;;;;10.05;5.47;;;11.60;99.90;;;;;;5034510;28;20638;-75
2022/10/26 08:31:34;;;;;;;9.02;5.18;;;11.60;99.90;;;;;;5031566;28;20037;-74
2022/10/26 08:34:00;;;;;;;12.02;5.05;;;11.70;99.90;;;;;;5025422;28;20034;-74
2022/10/26 08:36:27;;;;;;;7.55;4.78;;;11.60;99.90;;;;;;5026384;28;20067;-74
2022/10/26 08:38:53;;;;;;;7.20;5.15;;;11.60;99.90;;;;;;5029112;28;20044;-74
2022/10/26 08:41:37;;;;;;;11.55;6.13;;;11.60;99.90;;;;;;5035562;28;20512;-74
2022/10/26 08:44:13;;;;;;;8.18;5.25;;;11.60;99.90;;;;;;5021580;28;20343;-75
2022/10/26 08:46:44;;;;;;;9.55;6.22;;;11.60;99.90;;;;;;5017905;28;20040;-74
2022/10/26 08:49:30;;;;;;;10.40;6.47;;;11.60;99.90;;;;;;5023236;28;20025;-75
2022/10/26 08:52:00;;;;;;;9.55;6.30;;;11.60;99.90;;;;;;5020130;28;20056;-74
2022/10/26 08:54:34;;;;;;;13.48;6.97;;;11.60;99.90;;;;;;5026202;28;20292;-73
2022/10/26 08:57:08;;;;;;;15.90;6.75;;;11.60;99.90;;;;;;5024100;28;20044;-73
2022/10/26 08:59:38;;;;;;;18.67;12.43;;;11.60;99.90;;;;;;5024734;28;20068;-73
2022/10/26 09:02:11;;;;;;;11.48;8.82;;;11.60;99.90;;;;;;5021847;28;20036;-73
2022/10/26 09:04:37;;;;;;;;;;;11.60;99.90;;;;;;5024681;28;20571;-73
2022/10/26 09:07:20;;;;;;;12.88;7.65;;;11.60;99.90;;;;;;5035487;28;19988;-75
2022/10/26 09:10:13;;;;;;;12.02;8.27;;;11.70;99.90;;;;;;5023066;28;20033;-74
2022/10/26 09:13:15;;;;;;;14.35;7.95;;;11.70;99.90;;;;;;5029363;28;20155;-75
2022/10/26 09:16:00;;;;;;;16.55;8.15;;;11.80;99.90;;;;;;5034272;28;20056;-74
2022/10/26 09:18:29;;;;;;;20.73;8.98;;;11.80;99.90;;;;;;5026395;28;20417;-75
2022/10/26 09:21:04;;;;;;;16.23;9.02;;;11.90;99.90;;;;;;5037172;28;20028;-74
2022/10/26 09:23:36;;;;;;;14.70;8.00;;;11.90;99.90;;;;;;5029471;28;20025;-75
2022/10/26 09:26:02;;;;;;;15.25;8.02;;;11.90;99.90;;;;;;5036857;28;20028;-74
2022/10/26 09:28:33;;;;;;;14.65;9.55;;;11.90;99.90;;;;;;5046282;28;20055;-75
2022/10/26 09:31:01;;;;;;;15.20;8.80;;;12.00;99.90;;;;;;5043548;28;20064;-74
2022/10/26 09:33:28;;;;;;;11.88;8.18;;;12.10;99.90;;;;;;5021284;28;20112;-75
2022/10/26 09:36:01;;;;;;;11.23;7.50;;;12.10;99.90;;;;;;5026247;28;21243;-74
2022/10/26 09:38:40;;;;;;;14.52;7.75;;;12.20;99.90;;;;;;5024729;28;20043;-74
2022/10/26 09:41:26;;;;;;;19.92;13.30;;;12.30;99.90;;;;;;5026142;28;20452;-73
2022/10/26 09:43:53;;;;;;;16.30;9.48;;;12.40;99.90;;;;;;5023612;28;20030;-74
2022/10/26 09:46:30;;;;;;;11.55;6.68;;;12.40;99.90;;;;;;5026053;28;20034;-74
2022/10/26 09:49:05;;;;;;;15.65;8.75;;;12.50;99.90;;;;;;5033088;28;20022;-73
2022/10/26 09:51:35;;;;;;;16.88;7.28;;;12.50;99.90;;;;;;5023456;28;20608;-74
2022/10/26 09:54:01;;;;;;;16.05;7.25;;;12.60;99.90;;;;;;5025614;28;20021;-74
2022/10/26 09:56:29;;;;;;;15.45;6.85;;;12.60;99.90;;;;;;5035471;28;20396;-74
2022/10/26 09:59:04;;;;;;;16.05;6.43;;;12.70;99.90;;;;;;5025389;28;20033;-74
2022/10/26 10:01:32;;;;;;;12.98;5.68;;;12.70;99.90;;;;;;5028526;28;20217;-74
2022/10/26 10:04:13;;;;;;;9.80;5.43;;;12.80;99.90;;;;;;5040116;28;20022;-74
2022/10/26 10:06:39;;;;;;;19.25;8.68;;;12.80;99.90;;;;;;5030253;28;20448;-74
2022/10/26 10:09:09;;;;;;;15.80;8.35;;;12.70;99.90;;;;;;5031507;28;20499;-75
2022/10/26 10:11:56;;;;;;;14.38;7.35;;;12.70;99.90;;;;;;5028012;28;20037;-74
2022/10/26 10:14:22;;;;;;;14.25;7.53;;;12.70;99.90;;;;;;5026323;28;20029;-74
2022/10/26 10:16:53;;;;;;;13.23;7.75;;;12.80;99.90;;;;;;5026837;28;20033;-75
2022/10/26 10:19:24;;;;;;;11.32;5.93;;;12.80;99.90;;;;;;5033112;28;20033;-74
2022/10/26 10:21:53;;;;;;;12.95;5.95;;;12.80;99.90;;;;;;5027682;28;20551;-74
2022/10/26 10:24:27;;;;;;;10.15;6.00;;;12.90;99.90;;;;;;5027926;28;20033;-74
2022/10/26 10:27:16;;;;;;;10.60;6.20;;;12.90;99.90;;;;;;5032694;28;20032;-75
2022/10/26 10:29:43;;;;;;;12.02;6.32;;;13.00;99.90;;;;;;5039196;28;20348;-74
2022/10/26 10:32:15;;;;;;;11.88;5.57;;;13.00;99.90;;;;;;5027059;28;20029;-75
2022/10/26 10:34:42;;;;;;;12.63;6.35;;;13.00;99.90;;;;;;5028205;28;20029;-75
2022/10/26 10:37:21;;;;;;;13.70;6.78;;;13.10;99.90;;;;;;5030283;28;20032;-75
2022/10/26 10:39:47;;;;;;;12.82;6.53;;;13.10;99.90;;;;;;5019997;28;20651;-72
2022/10/26 10:42:22;;;;;;;13.68;6.25;;;13.10;99.90;;;;;;5018036;28;20087;-72
2022/10/26 10:44:54;;;;;;;10.27;5.90;;;13.20;99.90;;;;;;5027512;28;20023;-72
2022/10/26 10:47:31;;;;;;;12.85;5.57;;;13.20;99.90;;;;;;5037382;28;20037;-71
2022/10/26 10:50:02;;;;;;;8.85;4.97;;;13.30;99.90;;;;;;5033291;28;20025;-71
2022/10/26 10:52:34;;;;;;;12.95;5.28;;;13.40;99.90;;;;;;5027661;28;20064;-72
2022/10/26 10:55:20;;;;;;;19.33;10.73;;;13.40;99.90;;;;;;5027043;28;20036;-72
2022/10/26 10:57:58;;;;;;;11.88;6.57;;;13.60;99.90;;;;;;5032973;28;20025;-70
2022/10/26 11:00:24;;;;;;;12.05;6.10;;;13.60;99.90;;;;;;5029705;28;20382;-71
2022/10/26 11:03:04;;;;;;;9.10;5.93;;;13.70;99.90;;;;;;5033716;28;20021;-71
2022/10/26 11:06:08;;;;;;;10.02;5.78;;;13.80;99.90;;;;;;5036202;28;20033;-71
2022/10/26 11:08:52;;;;;;;10.38;5.07;;;13.90;99.90;;;;;;5030814;28;20374;-72
2022/10/26 11:11:17;;;;;;;12.48;5.00;;;14.00;99.90;;;;;;5030217;28;20121;-73
2022/10/26 11:14:01;;;;;;;10.63;5.22;;;14.00;99.90;;;;;;5031770;28;20750;-71
2022/10/26 11:16:53;;;;;;;8.05;4.80;;;14.10;99.90;;;;;;5034771;28;20801;-73
2022/10/26 11:19:36;;;;;;;7.07;4.80;;;14.10;99.90;;;;;;5032708;28;20036;-73
2022/10/26 11:22:05;;;;;;;11.25;4.45;;;14.20;99.90;;;;;;5030920;28;20743;-73
2022/10/26 11:24:40;;;;;;;6.60;3.85;;;14.40;99.90;;;;;;5032870;28;20033;-72
2022/10/26 11:27:18;;;;;;;8.27;4.30;;;14.50;99.90;;;;;;5041967;28;20033;-73
2022/10/26 11:30:10;;;;;;;11.35;4.07;;;14.70;99.90;;;;;;5028337;28;20812;-72
2022/10/26 11:32:59;;;;;;;11.07;4.30;;;14.90;99.90;;;;;;5031701;28;20041;-73
2022/10/26 11:35:27;;;;;;;9.10;3.85;;;15.10;99.90;;;;;;5031718;28;20390;-72
2022/10/26 11:38:50;;;;;;;10.75;3.95;;;15.30;99.90;;;;;;5035761;28;20036;-72
2022/10/26 11:41:49;;;;;;;5.35;3.50;;;15.50;99.90;;;;;;5047120;28;20056;-72
2022/10/26 11:44:29;;;;;;;10.85;3.40;;;15.70;99.90;;;;;;5049577;28;20020;-72
2022/10/26 11:47:02;;;;;;;11.80;3.95;;;15.90;99.90;;;;;;5031631;28;20073;-74
2022/10/26 11:49:40;;;;;;;;;;;16.10;99.90;;;;;;5033175;28;20033;-73
2022/10/26 11:52:18;;;;;;;4.38;3.28;;;16.30;99.90;;;;;;5035827;28;19909;-71
2022/10/26 11:54:53;;;;;;;6.40;3.33;;;16.40;99.90;;;;;;5033494;28;20025;-72
2022/10/26 11:57:21;;;;;;;11.95;3.75;;;16.50;99.90;;;;;;5033128;28;20167;-74
2022/10/26 11:59:51;;;;;;;11.38;4.35;;;16.60;99.90;;;;;;5027271;28;20021;-72
2022/10/26 12:02:21;;;;;;;7.57;3.45;;;16.60;99.90;;;;;;5027476;28;20037;-72
2022/10/26 12:05:09;;;;;;;9.23;4.05;;;16.70;99.90;;;;;;5034179;28;20030;-72
2022/10/26 12:07:39;;;;;;;7.03;3.60;;;16.90;99.90;;;;;;5036563;28;20033;-71
2022/10/26 12:10:09;;;;;;;9.93;3.88;;;16.90;99.90;;;;;;5036330;28;20108;-71
2022/10/26 12:13:06;;;;;;;7.75;4.07;;;17.00;99.90;;;;;;5024876;28;20028;-71
2022/10/26 12:15:43;;;;;;;9.70;3.78;;;17.10;99.90;;;;;;5046649;28;20065;-71
2022/10/26 12:18:40;;;;;;;7.82;3.40;;;17.10;99.90;;;;;;5031574;28;20021;-71
2022/10/26 12:21:08;;;;;;;6.28;3.47;;;17.20;99.90;;;;;;5031713;28;20037;-73
2022/10/26 12:23:38;;;;;;;7.03;3.25;;;17.30;99.90;;;;;;5028260;28;20164;-70
2022/10/26 12:26:49;;;;;;;9.00;3.20;;;17.40;99.90;;;;;;5033697;28;20056;-73
2022/10/26 12:29:29;;;;;;;6.57;3.15;;;17.40;99.90;;;;;;5031678;28;20092;-72
2022/10/26 12:31:55;;;;;;;9.05;2.92;;;17.60;99.90;;;;;;5031849;28;20052;-73
2022/10/26 12:34:42;;;;;;;8.35;2.97;;;17.70;99.90;;;;;;5030457;28;20017;-72
2022/10/26 12:37:21;;;;;;;11.82;3.20;;;17.70;99.90;;;;;;5045709;28;20160;-74
2022/10/26 12:39:47;;;;;;;5.50;2.50;;;17.80;99.90;;;;;;5033581;28;20242;-73
2022/10/26 12:42:16;;;;;;;11.48;3.13;;;17.80;99.90;;;;;;5026182;28;20304;-73
2022/10/26 12:44:44;;;;;;;11.50;3.25;;;17.90;99.90;;;;;;5034037;28;20036;-72
2022/10/26 12:47:30;;;;;;;6.85;2.55;;;17.80;99.90;;;;;;5040466;28;20017;-73
2022/10/26 12:50:05;;;;;;;9.65;3.00;;;17.80;99.90;;;;;;5032809;28;20022;-74
2022/10/26 12:52:44;;;;;;;7.47;2.78;;;17.80;99.90;;;;;;5032458;28;21198;-73
2022/10/26 12:55:19;;;;;;;8.93;2.95;;;17.60;99.90;;;;;;5024601;28;20060;-73
2022/10/26 12:58:02;;;;;;;10.20;3.10;;;17.30;99.90;;;;;;5028809;28;20025;-75
2022/10/26 13:00:28;;;;;;;6.43;2.95;;;17.10;99.90;;;;;;5034251;28;20028;-73
2022/10/26 13:03:02;;;;;;;11.15;3.45;;;16.90;99.90;;;;;;5025347;28;20417;-74
2022/10/26 13:05:52;;;;;;;7.20;3.42;;;16.70;99.90;;;;;;5030707;28;20139;-74
2022/10/26 13:08:18;;;;;;;14.57;3.25;;;16.60;99.90;;;;;;5028842;28;20051;-75